Terminal Aerodrome Forecast
Issued by NWS

Home | Current Version | Previous Version | Text Only | Print | Product List | Glossary On
Versions: 1 2 3 4 5 6 7 8 9 10 11 12 13 14 15 16 17 18 19 20 21 22 23 24
000
FTUS46 KOTX 301132
TAFPUW
TAF
KPUW 301132Z 3012/3112 10008KT P6SM SKC
     FM301800 12009KT P6SM FEW250
     FM310500 23013G23KT P6SM FEW150 BKN200
     FM310800 28006KT P6SM VCSH SCT120 OVC150=

USA.gov is the U.S. government's official web portal to all federal, state and local government web resources and services.